Time;durP1;ratioP1;P1;durP2;ratioP2;P2;SDS_P1;SDS_P2;PMS_P1;PMS_P2;Temp;Humidity;BMP_temperature;BMP_pressure;BME280_temperature;BME280_humidity;BME280_pressure;Samples;Min_cycle;Max_cycle;Signal;HPM_P1;HPM_P2
2021/08/26 00:06:16;;;;;;;1999.90;999.90;;;;;;;17.47;81.97;100415.50;15757059;28;20076;-61
2021/08/26 00:13:51;;;;;;;1999.90;999.90;;;;;;;17.49;81.61;100418.72;15772846;28;20105;-60
2021/08/26 00:21:24;;;;;;;1999.90;999.90;;;;;;;17.23;82.16;100406.38;15774806;28;20460;-62
2021/08/26 00:28:58;;;;;;;1999.90;999.90;;;;;;;17.14;81.81;100403.06;15754639;28;20067;-61
2021/08/26 00:36:34;;;;;;;1999.90;999.90;;;;;;;17.24;81.76;100388.25;15744424;28;20059;-61
2021/08/26 00:44:07;;;;;;;1999.90;999.90;;;;;;;17.19;82.26;100380.13;15803143;28;20079;-62
2021/08/26 00:51:40;;;;;;;1999.90;999.90;;;;;;;17.16;82.33;100375.28;15759510;28;20044;-61
2021/08/26 00:59:14;;;;;;;1999.90;999.90;;;;;;;17.12;82.53;100359.53;15802647;28;20044;-60
2021/08/26 01:06:56;;;;;;;1999.90;999.90;;;;;;;17.10;82.49;100361.94;15799558;28;20086;-60
2021/08/26 01:14:30;;;;;;;1999.90;999.90;;;;;;;17.27;81.74;100362.09;15764985;28;20040;-60
2021/08/26 01:22:03;;;;;;;1999.90;999.90;;;;;;;17.10;82.59;100350.66;15764784;28;20047;-59
2021/08/26 01:29:36;;;;;;;1999.90;999.90;;;;;;;16.97;82.34;100358.53;15763828;28;20409;-59
2021/08/26 01:37:09;;;;;;;1999.90;999.90;;;;;;;17.10;81.68;100364.75;15793230;28;20299;-60
2021/08/26 01:44:43;;;;;;;1999.90;999.90;;;;;;;16.98;81.50;100363.78;15750361;28;20040;-60
2021/08/26 01:52:17;;;;;;;1999.90;999.90;;;;;;;17.06;81.24;100359.06;15790224;28;20123;-61
2021/08/26 01:59:51;;;;;;;1999.90;999.90;;;;;;;17.12;81.27;100351.09;15769390;28;20048;-59
2021/08/26 02:07:23;;;;;;;1999.90;999.90;;;;;;;16.97;81.89;100338.81;15769080;28;20485;-59
2021/08/26 02:14:58;;;;;;;1999.90;999.90;;;;;;;17.00;81.58;100347.34;15798057;28;20047;-59
2021/08/26 02:22:30;;;;;;;1999.90;999.90;;;;;;;16.90;81.71;100355.66;15777388;28;20165;-59
2021/08/26 02:30:06;;;;;;;1999.90;999.90;;;;;;;17.14;80.89;100343.03;15759964;28;20036;-61
2021/08/26 02:37:38;;;;;;;1999.90;999.90;;;;;;;16.84;81.50;100338.28;15762672;28;20129;-58
2021/08/26 02:45:12;;;;;;;1999.90;999.90;;;;;;;16.81;81.82;100333.41;15757149;28;20570;-59
2021/08/26 02:52:44;;;;;;;1999.90;999.90;;;;;;;16.60;81.76;100319.03;15778188;28;20132;-59
2021/08/26 03:00:19;;;;;;;1999.90;999.90;;;;;;;16.60;81.43;100321.88;15784290;28;20044;-60
2021/08/26 03:07:54;;;;;;;1999.90;999.90;;;;;;;16.60;81.78;100319.03;15792829;28;20481;-61
2021/08/26 03:15:30;;;;;;;1999.90;999.90;;;;;;;16.78;81.03;100324.91;15776963;28;20139;-60
2021/08/26 03:23:03;;;;;;;1999.90;999.90;;;;;;;16.52;81.58;100322.97;15755002;28;20413;-61
2021/08/26 03:30:40;;;;;;;1999.90;999.90;;;;;;;16.42;82.58;100321.63;15746585;28;20136;-61
2021/08/26 03:38:14;;;;;;;1999.90;999.90;;;;;;;16.43;82.63;100324.06;15758686;28;20051;-60
2021/08/26 03:45:49;;;;;;;1999.90;999.90;;;;;;;16.54;82.40;100329.81;15790748;28;20042;-61
2021/08/26 03:53:29;;;;;;;1999.90;999.90;;;;;;;16.43;83.09;100326.88;15753312;28;20501;-61
2021/08/26 04:01:07;;;;;;;1999.90;999.90;;;;;;;16.62;81.89;100328.72;15755599;28;20032;-62
2021/08/26 04:08:40;;;;;;;1999.90;999.90;;;;;;;16.60;82.13;100342.38;15773226;28;20044;-60
2021/08/26 04:16:14;;;;;;;1999.90;999.90;;;;;;;16.75;81.53;100340.56;15766813;28;20048;-64
2021/08/26 04:23:46;;;;;;;1999.90;999.90;;;;;;;16.68;81.71;100332.88;15793642;28;20412;-59
2021/08/26 04:31:24;;;;;;;1999.90;999.90;;;;;;;16.89;81.48;100329.50;15769879;28;20048;-62
2021/08/26 04:38:56;;;;;;;1999.90;999.90;;;;;;;16.83;81.35;100327.41;15784038;28;20048;-62
2021/08/26 04:46:30;;;;;;;1999.90;999.90;;;;;;;16.59;82.27;100329.50;15777081;28;20048;-62
2021/08/26 04:54:05;;;;;;;1999.90;999.90;;;;;;;16.85;81.51;100337.06;15753154;28;20397;-62
2021/08/26 05:01:38;;;;;;;1999.90;999.90;;;;;;;16.71;81.97;100320.81;15774772;28;20032;-62
2021/08/26 05:09:11;;;;;;;1999.90;999.90;;;;;;;16.65;82.81;100321.50;15784051;28;20144;-62
2021/08/26 05:16:47;;;;;;;1999.90;999.90;;;;;;;16.87;82.50;100319.78;15778634;28;20052;-61
2021/08/26 05:24:20;;;;;;;1999.90;999.90;;;;;;;16.70;82.54;100326.84;15801321;28;20123;-59
2021/08/26 05:31:53;;;;;;;1999.90;999.90;;;;;;;16.78;82.82;100303.22;15770812;28;20048;-61
2021/08/26 05:39:25;;;;;;;1999.90;999.90;;;;;;;17.26;81.70;100306.09;15774057;28;20052;-61
2021/08/26 05:46:59;;;;;;;1999.90;999.90;;;;;;;17.40;80.16;100330.78;15755438;28;20044;-60
2021/08/26 05:54:31;;;;;;;1999.90;999.90;;;;;;;17.20;81.10;100331.03;15752333;28;20048;-61
2021/08/26 06:02:06;;;;;;;1999.90;999.90;;;;;;;17.20;81.10;100339.50;15752832;28;20393;-62
2021/08/26 06:09:40;;;;;;;1999.90;999.90;;;;;;;17.05;81.10;100342.53;15752973;28;20489;-58
2021/08/26 06:17:16;;;;;;;1999.90;999.90;;;;;;;17.18;80.68;100344.69;15751237;28;20068;-59
2021/08/26 06:24:51;;;;;;;1999.90;999.90;;;;;;;17.27;81.04;100355.66;15750881;28;20102;-59
2021/08/26 06:32:27;;;;;;;1999.90;999.90;;;;;;;17.25;81.32;100358.06;15756045;28;20044;-61
2021/08/26 06:40:02;;;;;;;1999.90;999.90;;;;;;;17.47;80.73;100361.91;15813548;28;20071;-59
2021/08/26 06:47:38;;;;;;;1999.90;999.90;;;;;;;17.47;79.93;100368.34;15813006;28;20047;-62
2021/08/26 06:55:10;;;;;;;1999.90;999.90;;;;;;;17.56;79.48;100374.47;15811291;28;20048;-61
2021/08/26 07:02:51;;;;;;;1999.90;999.90;;;;;;;17.95;77.79;100381.72;15813092;28;20044;-59
2021/08/26 07:10:33;;;;;;;1999.90;999.90;;;;;;;18.36;76.32;100376.75;15812168;28;20105;-62
2021/08/26 07:18:09;;;;;;;1999.90;999.90;;;;;;;18.37;75.34;100376.34;15809500;28;20052;-60
2021/08/26 07:25:42;;;;;;;1999.90;999.90;;;;;;;18.95;73.21;100378.28;15808683;28;20497;-61
2021/08/26 07:33:15;;;;;;;1999.90;999.90;;;;;;;19.37;69.70;100379.59;15794689;28;20048;-63
2021/08/26 07:40:49;;;;;;;1999.90;999.90;;;;;;;19.25;70.42;100382.81;15745756;28;20053;-59
2021/08/26 07:48:26;;;;;;;1999.90;999.90;;;;;;;18.93;71.55;100389.16;15744137;28;20083;-62
2021/08/26 07:55:58;;;;;;;1999.90;999.90;;;;;;;19.76;68.55;100382.53;15744673;28;20120;-65
2021/08/26 08:03:32;;;;;;;1999.90;999.90;;;;;;;21.09;65.60;100375.38;15743221;28;20045;-63
2021/08/26 08:11:06;;;;;;;1999.90;999.90;;;;;;;20.78;62.30;100367.81;15741673;28;20036;-62
2021/08/26 08:18:39;;;;;;;1999.90;999.90;;;;;;;21.05;60.61;100371.75;15742244;28;20447;-63
2021/08/26 08:26:15;;;;;;;1999.90;999.90;;;;;;;21.60;60.16;100376.72;15742717;28;20041;-61
2021/08/26 08:33:48;;;;;;;1999.90;999.90;;;;;;;23.53;58.49;100379.06;15760233;28;20052;-62
2021/08/26 08:41:21;;;;;;;1999.90;999.90;;;;;;;22.65;56.32;100378.19;15805075;28;20471;-62
2021/08/26 08:48:56;;;;;;;;;;;;;;;23.79;53.14;100362.44;15804784;28;20056;-63
2021/08/26 08:56:28;;;;;;;1999.90;999.90;;;;;;;21.89;55.62;100363.09;15804529;28;19966;-62
2021/08/26 09:04:02;;;;;;;1999.90;999.90;;;;;;;21.41;57.06;100365.91;15804352;28;20044;-62
2021/08/26 09:11:35;;;;;;;1999.90;999.90;;;;;;;22.53;53.80;100356.00;15802367;28;20044;-62
2021/08/26 09:19:24;;;;;;;;;;;;;;;20.97;59.31;100375.84;15803403;28;20497;-61
2021/08/26 09:26:58;;;;;;;1999.90;999.90;;;;;;;20.71;60.18;100362.97;15802777;28;19923;-61
2021/08/26 09:34:41;;;;;;;1999.90;999.90;;;;;;;18.44;68.34;100403.81;15778867;28;20489;-61
2021/08/26 09:42:14;;;;;;;1999.90;999.90;;;;;;;17.73;71.23;100394.81;15739560;28;20047;-60
2021/08/26 09:49:50;;;;;;;1999.90;999.90;;;;;;;18.08;73.70;100383.81;15739585;28;20106;-60
2021/08/26 09:57:24;;;;;;;1999.90;999.90;;;;;;;17.99;73.83;100382.53;15737548;28;20072;-61
2021/08/26 10:04:59;;;;;;;1999.90;999.90;;;;;;;17.75;74.52;100384.75;15741214;28;20067;-63
2021/08/26 10:12:32;;;;;;;1999.90;999.90;;;;;;;18.29;71.93;100382.34;15726200;28;20052;-62
2021/08/26 10:20:08;;;;;;;1999.90;999.90;;;;;;;20.31;67.79;100389.75;15745301;28;20094;-64
2021/08/26 10:27:41;;;;;;;1999.90;999.90;;;;;;;21.54;63.48;100395.41;15743138;28;20502;-64
2021/08/26 10:35:18;;;;;;;1999.90;999.90;;;;;;;21.08;63.87;100404.16;15784223;28;20044;-64
2021/08/26 10:43:01;;;;;;;1999.90;999.90;;;;;;;20.02;68.67;100406.00;15818715;28;20040;-64
2021/08/26 10:50:37;;;;;;;1999.90;999.90;;;;;;;18.89;70.34;100425.09;15816817;28;20074;-64
2021/08/26 10:58:37;;;;;;;1999.90;999.90;;;;;;;18.20;68.51;100422.22;15816363;28;20048;-63
2021/08/26 11:06:35;;;;;;;1999.90;999.90;;;;;;;17.91;69.60;100400.59;15817677;28;20044;-64
2021/08/26 11:14:33;;;;;;;1999.90;999.90;;;;;;;17.99;69.42;100393.81;15811862;28;20117;-64
2021/08/26 11:22:09;;;;;;;1999.90;999.90;;;;;;;18.18;70.86;100390.75;15807157;28;20044;-62
2021/08/26 11:29:43;;;;;;;1999.90;999.90;;;;;;;18.58;69.16;100397.47;15812966;28;20642;-64
2021/08/26 11:37:19;;;;;;;1999.90;999.90;;;;;;;18.41;71.59;100405.44;15815268;28;20043;-64
2021/08/26 11:45:06;;;;;;;1999.90;999.90;;;;;;;17.80;71.77;100421.09;15817058;28;20079;-64
2021/08/26 11:52:44;;;;;;;1999.90;999.90;;;;;;;17.16;73.90;100423.22;15798173;28;20404;-63
2021/08/26 12:00:17;;;;;;;1999.90;999.90;;;;;;;16.98;74.29;100422.16;15813449;28;20079;-62
2021/08/26 12:07:55;;;;;;;1999.90;999.90;;;;;;;17.50;74.17;100406.25;15810940;28;20072;-64
2021/08/26 12:15:32;;;;;;;1999.90;999.90;;;;;;;18.22;71.59;100402.88;15816946;28;20070;-64
2021/08/26 12:23:09;;;;;;;1999.90;999.90;;;;;;;18.82;71.60;100410.13;15811386;28;20044;-64
2021/08/26 12:30:44;;;;;;;1999.90;999.90;;;;;;;23.42;58.29;100412.59;15812134;28;20079;-64
2021/08/26 12:38:36;;;;;;;1999.90;999.90;;;;;;;26.86;49.61;100402.94;15753874;28;20048;-64
2021/08/26 12:46:11;;;;;;;1999.90;999.90;;;;;;;30.42;42.13;100410.34;15748673;28;20583;-64
2021/08/26 12:53:47;;;;;;;1999.90;999.90;;;;;;;23.58;54.15;100414.81;15747294;28;20046;-64
2021/08/26 13:01:24;;;;;;;1999.90;999.90;;;;;;;28.52;45.92;100420.25;15747373;28;20413;-64
2021/08/26 13:08:58;;;;;;;1999.90;999.90;;;;;;;22.16;58.71;100411.59;15746537;28;20048;-64
2021/08/26 13:16:30;;;;;;;1999.90;999.90;;;;;;;19.85;66.21;100416.91;15729522;28;20127;-62
2021/08/26 13:24:04;;;;;;;1999.90;999.90;;;;;;;22.99;59.70;100413.16;15747691;28;20128;-63
2021/08/26 13:31:37;;;;;;;1999.90;999.90;;;;;;;23.56;56.89;100411.59;15741470;28;20028;-61
2021/08/26 13:39:10;;;;;;;1999.90;999.90;;;;;;;20.40;64.20;100410.00;15786798;28;20052;-63
2021/08/26 13:46:46;;;;;;;1999.90;999.90;;;;;;;19.39;67.38;100413.19;15750758;28;20485;-64
2021/08/26 13:54:21;;;;;;;1999.90;999.90;;;;;;;19.13;70.03;100428.44;15751677;28;20123;-64
2021/08/26 14:01:53;;;;;;;1999.90;999.90;;;;;;;18.91;70.92;100424.72;15766755;28;20044;-64
2021/08/26 14:09:27;;;;;;;1999.90;999.90;;;;;;;18.73;70.91;100421.78;15770520;28;20036;-64
2021/08/26 14:17:02;;;;;;;1999.90;999.90;;;;;;;18.86;70.29;100408.94;15750532;28;20044;-64
2021/08/26 14:24:36;;;;;;;1999.90;999.90;;;;;;;19.17;68.96;100420.75;15751776;28;20048;-63
2021/08/26 14:32:11;;;;;;;1999.90;999.90;;;;;;;18.55;68.16;100410.38;15753605;28;20044;-63
2021/08/26 14:39:45;;;;;;;1999.90;999.90;;;;;;;18.57;69.08;100416.44;15816149;28;20556;-63
2021/08/26 14:47:17;;;;;;;1999.90;999.90;;;;;;;18.66;68.94;100416.94;15815892;28;20044;-63
2021/08/26 14:54:50;;;;;;;1999.90;999.90;;;;;;;18.84;69.08;100410.53;15815357;28;20494;-63
2021/08/26 15:02:23;;;;;;;1999.90;999.90;;;;;;;18.83;66.42;100404.06;15813300;28;20115;-64
2021/08/26 15:10:00;;;;;;;1999.90;999.90;;;;;;;19.05;68.89;100404.97;15813066;28;20566;-65
2021/08/26 15:17:33;;;;;;;1999.90;999.90;;;;;;;19.04;68.25;100411.84;15797291;28;20041;-65
2021/08/26 15:25:11;;;;;;;1999.90;999.90;;;;;;;18.72;69.19;100406.84;15779404;28;20036;-65
2021/08/26 15:32:43;;;;;;;1999.90;999.90;;;;;;;18.95;68.83;100419.88;15758170;28;20127;-64
2021/08/26 15:40:18;;;;;;;1999.90;999.90;;;;;;;19.01;69.84;100432.44;15777549;28;20113;-63
2021/08/26 15:47:51;;;;;;;1999.90;999.90;;;;;;;19.19;68.98;100438.97;15766021;28;20047;-63
2021/08/26 15:55:26;;;;;;;1999.90;999.90;;;;;;;19.24;69.36;100437.75;15777770;28;20048;-64
2021/08/26 16:02:59;;;;;;;1999.90;999.90;;;;;;;19.14;69.12;100435.72;15787032;28;20052;-64
2021/08/26 16:10:34;;;;;;;1999.90;999.90;;;;;;;18.84;68.86;100427.50;15774678;28;20040;-61
2021/08/26 16:18:08;;;;;;;1999.90;999.90;;;;;;;18.82;68.28;100432.75;15763950;28;20177;-61
2021/08/26 16:25:42;;;;;;;1999.90;999.90;;;;;;;18.74;67.14;100429.06;15792639;28;20052;-60
2021/08/26 16:33:18;;;;;;;1999.90;999.90;;;;;;;18.47;68.03;100434.13;15757282;28;20048;-64
2021/08/26 16:40:51;;;;;;;1999.90;999.90;;;;;;;18.67;68.20;100435.50;15828312;28;20048;-63
2021/08/26 16:48:23;;;;;;;1999.90;999.90;;;;;;;18.43;68.44;100441.75;15801801;28;20123;-59
2021/08/26 16:55:57;;;;;;;1999.90;999.90;;;;;;;18.32;68.86;100450.16;15776648;28;20040;-60
2021/08/26 17:03:30;;;;;;;1999.90;999.90;;;;;;;17.99;69.76;100455.94;15773451;28;20051;-63
2021/08/26 17:11:04;;;;;;;1999.90;999.90;;;;;;;17.63;70.27;100461.22;15759968;28;20052;-62
2021/08/26 17:18:38;;;;;;;1999.90;999.90;;;;;;;17.59;71.84;100460.34;15802536;28;20078;-61
2021/08/26 17:26:15;;;;;;;1999.90;999.90;;;;;;;17.52;72.69;100455.47;15758307;28;20489;-61
2021/08/26 17:33:47;;;;;;;1999.90;999.90;;;;;;;17.20;72.99;100459.91;15779340;28;20040;-63
2021/08/26 17:41:21;;;;;;;1999.90;999.90;;;;;;;16.96;73.36;100466.84;15793768;28;20040;-59
2021/08/26 17:48:53;;;;;;;1999.90;999.90;;;;;;;17.15;72.93;100482.81;15722777;28;20074;-59
2021/08/26 17:56:26;;;;;;;1999.90;999.90;;;;;;;16.83;73.97;100488.00;15781881;28;20047;-60
2021/08/26 18:03:59;;;;;;;1999.90;999.90;;;;;;;16.64;73.67;100478.44;15799275;28;20063;-60
2021/08/26 18:11:32;;;;;;;1999.90;999.90;;;;;;;16.72;74.17;100485.03;15779982;28;20040;-60
2021/08/26 18:19:09;;;;;;;1999.90;999.90;;;;;;;16.66;74.58;100492.16;15774381;28;20379;-61
2021/08/26 18:26:42;;;;;;;1999.90;999.90;;;;;;;16.59;75.26;100492.88;15772733;28;20097;-60
2021/08/26 18:34:15;;;;;;;1999.90;999.90;;;;;;;16.50;76.52;100499.97;15759976;28;20047;-61
2021/08/26 18:41:54;;;;;;;1999.90;999.90;;;;;;;16.13;78.54;100509.81;15740693;28;20521;-60
2021/08/26 18:49:29;;;;;;;1999.90;999.90;;;;;;;16.13;78.68;100514.63;15793740;28;20140;-62
2021/08/26 18:57:06;;;;;;;1999.90;999.90;;;;;;;16.31;79.06;100514.94;15766961;28;20047;-63
2021/08/26 19:04:38;;;;;;;1999.90;999.90;;;;;;;16.18;79.57;100517.16;15749676;28;20040;-62
2021/08/26 19:12:13;;;;;;;1999.90;999.90;;;;;;;16.34;79.25;100505.72;15791150;28;20127;-62
2021/08/26 19:19:46;;;;;;;1999.90;999.90;;;;;;;16.43;78.88;100501.47;15799908;28;20040;-62
2021/08/26 19:27:20;;;;;;;1999.90;999.90;;;;;;;16.35;79.63;100510.97;15772770;28;20413;-60
2021/08/26 19:34:52;;;;;;;1999.90;999.90;;;;;;;16.34;79.23;100503.72;15800460;28;20128;-60
2021/08/26 19:42:28;;;;;;;1999.90;999.90;;;;;;;16.29;80.02;100508.88;15790386;28;20044;-61
2021/08/26 19:50:00;;;;;;;1999.90;999.90;;;;;;;16.11;79.78;100506.56;15757011;28;20483;-62
2021/08/26 19:57:34;;;;;;;1999.90;999.90;;;;;;;16.36;79.45;100514.59;15765423;28;20481;-63
2021/08/26 20:05:07;;;;;;;1999.90;999.90;;;;;;;16.21;80.19;100524.00;15760733;28;20044;-64
2021/08/26 20:12:41;;;;;;;1999.90;999.90;;;;;;;16.22;79.92;100514.38;15758553;28;20497;-63
2021/08/26 20:20:15;;;;;;;1999.90;999.90;;;;;;;16.14;80.26;100516.25;15744436;28;20072;-61
2021/08/26 20:27:49;;;;;;;1999.90;999.90;;;;;;;16.18;80.44;100517.16;15774582;28;20489;-59
2021/08/26 20:35:22;;;;;;;1999.90;999.90;;;;;;;16.13;80.65;100511.81;15788125;28;20126;-59
2021/08/26 20:42:56;;;;;;;1999.90;999.90;;;;;;;16.15;81.06;100513.09;15787143;28;20048;-61
2021/08/26 20:50:29;;;;;;;1999.90;999.90;;;;;;;16.12;80.93;100513.81;15805800;28;20047;-61
2021/08/26 20:58:02;;;;;;;1999.90;999.90;;;;;;;15.77;82.40;100505.56;15777276;28;20497;-59
2021/08/26 21:05:38;;;;;;;1999.90;999.90;;;;;;;15.83;82.17;100512.47;15753728;28;20410;-62
2021/08/26 21:13:15;;;;;;;1999.90;999.90;;;;;;;15.97;81.53;100513.94;15745300;28;20037;-63
2021/08/26 21:20:50;;;;;;;1999.90;999.90;;;;;;;15.96;81.76;100515.94;15753461;28;20067;-61
2021/08/26 21:28:24;;;;;;;1999.90;999.90;;;;;;;16.08;80.33;100512.94;15780934;28;20055;-62
2021/08/26 21:35:56;;;;;;;1999.90;999.90;;;;;;;15.97;81.04;100516.75;15763978;28;20128;-59
2021/08/26 21:43:30;;;;;;;1999.90;999.90;;;;;;;16.01;80.40;100517.63;15754288;28;20417;-62
2021/08/26 21:51:02;;;;;;;1999.90;999.90;;;;;;;16.00;79.92;100522.44;15802568;28;20123;-62
2021/08/26 21:58:40;;;;;;;1999.90;999.90;;;;;;;15.83;80.45;100518.09;15785230;28;20044;-61
2021/08/26 22:06:12;;;;;;;1999.90;999.90;;;;;;;15.77;80.65;100518.81;15762836;28;20064;-61
2021/08/26 22:13:47;;;;;;;1999.90;999.90;;;;;;;15.68;80.79;100526.66;15765838;28;20041;-59
2021/08/26 22:21:21;;;;;;;1999.90;999.90;;;;;;;15.69;80.19;100520.66;15754842;28;20059;-62
2021/08/26 22:28:55;;;;;;;1999.90;999.90;;;;;;;15.66;81.01;100518.59;15754435;28;20052;-61
2021/08/26 22:36:27;;;;;;;1999.90;999.90;;;;;;;15.62;80.40;100522.50;15776328;28;20047;-61
2021/08/26 22:44:01;;;;;;;1999.90;999.90;;;;;;;15.71;80.12;100521.09;15767097;28;20048;-61
2021/08/26 22:51:33;;;;;;;1999.90;999.90;;;;;;;15.69;80.96;100522.66;15780217;28;20607;-62
2021/08/26 22:59:07;;;;;;;1999.90;999.90;;;;;;;15.78;80.72;100521.25;15769011;28;20071;-60
2021/08/26 23:06:40;;;;;;;1999.90;999.90;;;;;;;15.91;80.93;100526.69;15766946;28;20036;-61
2021/08/26 23:14:17;;;;;;;1999.90;999.90;;;;;;;15.76;81.45;100534.06;15778435;28;20046;-61
2021/08/26 23:21:50;;;;;;;1999.90;999.90;;;;;;;15.85;80.43;100531.81;15771849;28;20068;-62
2021/08/26 23:29:23;;;;;;;1999.90;999.90;;;;;;;15.85;80.79;100527.00;15789710;28;20043;-62
2021/08/26 23:36:56;;;;;;;1999.90;999.90;;;;;;;15.79;80.19;100528.50;15784291;28;20101;-62
2021/08/26 23:44:30;;;;;;;1999.90;999.90;;;;;;;15.87;80.14;100506.94;15747840;28;20048;-61
2021/08/26 23:52:02;;;;;;;1999.90;999.90;;;;;;;15.80;80.37;100504.78;15799644;28;20078;-62
2021/08/26 23:59:39;;;;;;;1999.90;999.90;;;;;;;15.81;80.43;100512.03;15796962;28;20043;-61
